Terminal Aerodrome Forecast
Issued by NWS

Home | Current Version | Previous Version | Text Only | Print | Product List | Glossary On
Versions: 1 2 3 4 5 6 7 8 9 10 11 12 13 14 15 16 17
000
FTUS42 KMLB 260100 AAA
TAFISM
TAF AMD
KISM 260138Z 2602/2624 22005KT P6SM SCT100
     FM260900 21005KT P6SM VCSH BKN030 BKN050 WS020/26035KT
     FM261400 25015G22KT P6SM SCT030 BKN050
     FM261600 28018G28KT P6SM FEW030
      AMD NOT SKED 2603/2612=

USA.gov is the U.S. government's official web portal to all federal, state and local government web resources and services.